createdAt,value
2018-11-26T00:00:02.119Z,19.32
2018-11-26T00:01:02.221Z,19.29
2018-11-26T00:02:02.129Z,19.3
2018-11-26T00:03:02.120Z,19.31
2018-11-26T00:04:02.252Z,19.29
2018-11-26T00:05:02.840Z,19.29
2018-11-26T00:06:02.006Z,19.29
2018-11-26T00:07:01.969Z,19.28
2018-11-26T00:08:02.049Z,19.29
2018-11-26T00:09:01.913Z,19.27
2018-11-26T00:10:01.985Z,19.25
2018-11-26T00:11:01.898Z,19.27
2018-11-26T00:12:01.999Z,19.23
2018-11-26T00:13:02.089Z,19.25
2018-11-26T00:14:01.985Z,19.27
2018-11-26T00:15:02.056Z,19.25
2018-11-26T00:16:01.880Z,19.24
2018-11-26T00:17:01.965Z,19.24
2018-11-26T00:18:01.826Z,19.22
2018-11-26T00:19:02.087Z,19.23
2018-11-26T00:20:02.192Z,19.24
2018-11-26T00:21:01.875Z,19.24
2018-11-26T00:22:02.130Z,19.21
2018-11-26T00:23:01.973Z,19.23
2018-11-26T00:24:02.017Z,19.21
2018-11-26T00:25:02.146Z,19.21
2018-11-26T00:26:02.077Z,19.21
2018-11-26T00:27:02.104Z,19.21
2018-11-26T00:28:02.384Z,19.21
2018-11-26T00:29:03.006Z,19.2
2018-11-26T00:30:02.469Z,19.2
2018-11-26T00:31:02.150Z,19.18
2018-11-26T00:32:02.010Z,19.18
2018-11-26T00:33:02.254Z,19.18
2018-11-26T00:34:01.988Z,19.17
2018-11-26T00:35:02.015Z,19.18
2018-11-26T00:36:02.140Z,19.18
2018-11-26T00:37:02.034Z,19.15
2018-11-26T00:38:02.180Z,19.17
2018-11-26T00:39:01.878Z,19.17
2018-11-26T00:40:02.607Z,19.18
2018-11-26T00:41:01.865Z,19.17
2018-11-26T00:42:02.044Z,19.14
2018-11-26T00:43:02.124Z,19.14
2018-11-26T00:44:02.371Z,19.13
2018-11-26T00:45:02.188Z,19.14
2018-11-26T00:46:02.119Z,19.14
2018-11-26T00:47:02.081Z,19.13
2018-11-26T00:48:01.986Z,19.14
2018-11-26T00:49:02.029Z,19.13
2018-11-26T00:50:02.305Z,19.1
2018-11-26T00:51:02.126Z,19.12
2018-11-26T00:52:02.673Z,19.1
2018-11-26T00:53:02.940Z,19.11
2018-11-26T00:54:02.128Z,19.13
2018-11-26T00:55:02.075Z,19.12
2018-11-26T00:56:02.138Z,19.09
2018-11-26T00:57:02.037Z,19.12
2018-11-26T00:58:02.301Z,19.11
2018-11-26T00:59:02.127Z,19.1
2018-11-26T01:00:02.242Z,19.08
2018-11-26T01:01:02.819Z,19.1
2018-11-26T01:02:02.475Z,19.09
2018-11-26T01:03:02.132Z,19.09
2018-11-26T01:04:02.047Z,19.09
2018-11-26T01:05:01.830Z,19.08
2018-11-26T01:06:02.020Z,19.08
2018-11-26T01:07:02.086Z,19.07
2018-11-26T01:08:02.256Z,19.05
2018-11-26T01:09:02.297Z,19.06
2018-11-26T01:10:02.200Z,19.06
2018-11-26T01:11:02.185Z,19.06
2018-11-26T01:12:01.868Z,19.07
2018-11-26T01:13:02.253Z,19.06
2018-11-26T01:14:01.880Z,19.05
2018-11-26T01:15:02.555Z,19.03
2018-11-26T01:16:01.833Z,19.02
2018-11-26T01:17:02.270Z,19.02
2018-11-26T01:18:02.298Z,19.05
2018-11-26T01:19:02.815Z,19.01
2018-11-26T01:20:02.115Z,19
2018-11-26T01:21:01.984Z,19.02
2018-11-26T01:22:02.319Z,19.02
2018-11-26T01:23:02.209Z,19.01
2018-11-26T01:24:02.056Z,19.01
2018-11-26T01:25:02.205Z,19
2018-11-26T01:26:02.677Z,19
2018-11-26T01:27:02.120Z,19.01
2018-11-26T01:28:02.009Z,19.01
2018-11-26T01:29:02.044Z,18.99
2018-11-26T01:30:02.178Z,19.03
2018-11-26T01:31:02.078Z,19
2018-11-26T01:32:01.878Z,18.99
2018-11-26T01:33:02.053Z,18.98
2018-11-26T01:34:02.366Z,19.01
2018-11-26T01:35:02.220Z,18.98
2018-11-26T01:36:02.301Z,18.99
2018-11-26T01:37:02.054Z,18.98
2018-11-26T01:38:02.108Z,18.97
2018-11-26T01:39:01.848Z,18.97
2018-11-26T01:40:01.943Z,18.95
2018-11-26T01:41:01.781Z,18.98
2018-11-26T01:42:01.946Z,18.97
2018-11-26T01:43:01.956Z,18.97
2018-11-26T01:44:01.898Z,18.96
2018-11-26T01:45:02.070Z,18.95
2018-11-26T01:46:01.856Z,18.97
2018-11-26T01:47:02.182Z,18.95
2018-11-26T01:48:01.887Z,18.95
2018-11-26T01:49:02.416Z,18.97
2018-11-26T01:50:02.036Z,18.94
2018-11-26T01:51:01.832Z,18.94
2018-11-26T01:52:01.887Z,18.96
2018-11-26T01:53:01.866Z,18.94
2018-11-26T01:54:02.345Z,18.96
2018-11-26T01:55:01.785Z,18.94
2018-11-26T01:56:02.432Z,18.94
2018-11-26T01:57:02.012Z,18.93
2018-11-26T01:58:01.858Z,18.94
2018-11-26T01:59:02.031Z,18.93
2018-11-26T02:00:01.871Z,18.92
2018-11-26T02:01:01.857Z,18.91
2018-11-26T02:02:01.959Z,18.89
2018-11-26T02:03:01.957Z,18.91
2018-11-26T02:04:02.169Z,18.89
2018-11-26T02:05:02.126Z,18.88
2018-11-26T02:06:02.038Z,18.91
2018-11-26T02:07:02.195Z,18.89
2018-11-26T02:08:02.326Z,18.89
2018-11-26T02:09:02.206Z,18.89
2018-11-26T02:10:01.764Z,18.88
2018-11-26T02:11:02.459Z,18.89
2018-11-26T02:12:02.456Z,18.86
2018-11-26T02:13:02.511Z,18.87
2018-11-26T02:14:02.074Z,18.88
2018-11-26T02:15:02.006Z,18.86
2018-11-26T02:16:01.809Z,18.88
2018-11-26T02:17:02.312Z,18.88
2018-11-26T02:18:02.069Z,18.86
2018-11-26T02:19:01.816Z,18.84
2018-11-26T02:20:02.062Z,18.87
2018-11-26T02:21:02.239Z,18.84
2018-11-26T02:22:02.431Z,18.86
2018-11-26T02:23:01.827Z,18.84
2018-11-26T02:24:02.264Z,18.86
2018-11-26T02:25:01.900Z,18.83
2018-11-26T02:26:02.020Z,18.85
2018-11-26T02:27:02.124Z,18.83
2018-11-26T02:28:01.997Z,18.84
2018-11-26T02:29:02.075Z,18.84
2018-11-26T02:30:02.191Z,18.82
2018-11-26T02:31:02.831Z,18.84
2018-11-26T02:32:01.818Z,18.84
2018-11-26T02:33:01.936Z,18.83
2018-11-26T02:34:02.030Z,18.82
2018-11-26T02:35:02.038Z,18.82
2018-11-26T02:36:02.229Z,18.83
2018-11-26T02:37:02.248Z,18.82
2018-11-26T02:38:01.992Z,18.82
2018-11-26T02:39:02.218Z,18.82
2018-11-26T02:40:02.217Z,18.82
2018-11-26T02:41:02.349Z,18.81
2018-11-26T02:42:02.374Z,18.81
2018-11-26T02:43:02.499Z,18.8
2018-11-26T02:44:01.911Z,18.82
2018-11-26T02:45:01.960Z,18.82
2018-11-26T02:46:02.656Z,18.8
2018-11-26T02:47:02.370Z,18.79
2018-11-26T02:48:02.157Z,18.78
2018-11-26T02:49:02.208Z,18.79
2018-11-26T02:50:02.074Z,18.79
2018-11-26T02:51:02.330Z,18.8
2018-11-26T02:52:02.410Z,18.8
2018-11-26T02:53:02.264Z,18.77
2018-11-26T02:54:01.965Z,18.77
2018-11-26T02:55:02.032Z,18.78
2018-11-26T02:56:01.954Z,18.77
2018-11-26T02:57:01.859Z,18.77
2018-11-26T02:58:02.386Z,18.77
2018-11-26T02:59:02.081Z,18.77
2018-11-26T03:00:01.889Z,18.76
2018-11-26T03:01:01.959Z,18.78
2018-11-26T03:02:02.131Z,18.76
2018-11-26T03:03:01.985Z,18.76
2018-11-26T03:04:02.145Z,18.77
2018-11-26T03:05:02.017Z,18.77
2018-11-26T03:06:02.226Z,18.73
2018-11-26T03:07:02.002Z,18.74
2018-11-26T03:08:02.248Z,18.74
2018-11-26T03:09:01.827Z,18.74
2018-11-26T03:10:02.398Z,18.72
2018-11-26T03:11:01.855Z,18.73
2018-11-26T03:12:01.941Z,18.72
2018-11-26T03:13:02.104Z,18.71
2018-11-26T03:14:01.955Z,18.73
2018-11-26T03:15:02.080Z,18.72
2018-11-26T03:16:01.826Z,18.74
2018-11-26T03:17:02.065Z,18.72
2018-11-26T03:18:01.888Z,18.71
2018-11-26T03:19:02.052Z,18.72
2018-11-26T03:20:01.837Z,18.73
2018-11-26T03:21:02.057Z,18.73
2018-11-26T03:22:01.802Z,18.71
2018-11-26T03:23:01.864Z,18.71
2018-11-26T03:24:02.133Z,18.69
2018-11-26T03:25:01.834Z,18.71
2018-11-26T03:26:01.999Z,18.7
2018-11-26T03:27:01.875Z,18.71
2018-11-26T03:28:01.927Z,18.69
2018-11-26T03:29:01.899Z,18.7
2018-11-26T03:30:01.883Z,18.7
2018-11-26T03:31:01.703Z,18.71
2018-11-26T03:32:02.014Z,18.7
2018-11-26T03:33:01.935Z,18.69
2018-11-26T03:34:01.797Z,18.69
2018-11-26T03:35:02.019Z,18.68
2018-11-26T03:36:02.148Z,18.69
2018-11-26T03:37:02.208Z,18.69
2018-11-26T03:38:02.253Z,18.68
2018-11-26T03:39:01.867Z,18.68
2018-11-26T03:40:02.372Z,18.69
2018-11-26T03:41:01.771Z,18.67
2018-11-26T03:42:01.773Z,18.67
2018-11-26T03:43:01.878Z,18.68
2018-11-26T03:44:02.080Z,18.68
2018-11-26T03:45:02.073Z,18.69
2018-11-26T03:46:01.933Z,18.68
2018-11-26T03:47:02.328Z,18.66
2018-11-26T03:48:02.033Z,18.66
2018-11-26T03:49:02.130Z,18.66
2018-11-26T03:50:01.944Z,18.68
2018-11-26T03:51:01.927Z,18.68
2018-11-26T03:52:02.082Z,18.66
2018-11-26T03:53:01.813Z,18.65
2018-11-26T03:54:02.035Z,18.65
2018-11-26T03:55:02.383Z,18.66
2018-11-26T03:56:02.193Z,18.66
2018-11-26T03:57:01.863Z,18.63
2018-11-26T03:58:01.872Z,18.65
2018-11-26T03:59:02.008Z,18.64
2018-11-26T04:00:01.886Z,18.65
2018-11-26T04:01:02.035Z,18.63
2018-11-26T04:02:01.803Z,18.65
2018-11-26T04:03:02.083Z,18.64
2018-11-26T04:04:02.151Z,18.65
2018-11-26T04:05:02.045Z,18.63
2018-11-26T04:06:01.871Z,18.61
2018-11-26T04:07:02.163Z,18.62
2018-11-26T04:08:01.841Z,18.63
2018-11-26T04:09:02.019Z,18.62
2018-11-26T04:10:02.100Z,18.62
2018-11-26T04:11:01.877Z,18.62
2018-11-26T04:12:01.956Z,18.62
2018-11-26T04:13:02.139Z,18.62
2018-11-26T04:14:02.289Z,18.61
2018-11-26T04:15:01.876Z,18.62
2018-11-26T04:16:02.220Z,18.62
2018-11-26T04:17:02.048Z,18.58
2018-11-26T04:18:01.880Z,18.61
2018-11-26T04:19:02.444Z,18.61
2018-11-26T04:20:01.847Z,18.61
2018-11-26T04:21:02.054Z,18.62
2018-11-26T04:22:02.064Z,18.59
2018-11-26T04:23:02.176Z,18.61
2018-11-26T04:24:02.283Z,18.58
2018-11-26T04:25:01.956Z,18.61
2018-11-26T04:26:02.319Z,18.59
2018-11-26T04:27:02.125Z,18.62
2018-11-26T04:28:02.031Z,18.59
2018-11-26T04:29:01.830Z,18.59
2018-11-26T04:30:02.817Z,18.57
2018-11-26T04:31:01.920Z,18.58
2018-11-26T04:32:02.378Z,18.61
2018-11-26T04:33:02.349Z,18.58
2018-11-26T04:34:01.879Z,18.57
2018-11-26T04:35:01.948Z,18.57
2018-11-26T04:36:01.839Z,18.57
2018-11-26T04:37:02.196Z,18.57
2018-11-26T04:38:01.876Z,18.58
2018-11-26T04:39:02.118Z,18.57
2018-11-26T04:40:01.755Z,18.56
2018-11-26T04:41:01.865Z,18.57
2018-11-26T04:42:02.252Z,18.55
2018-11-26T04:43:02.107Z,18.58
2018-11-26T04:44:02.029Z,18.58
2018-11-26T04:45:01.786Z,18.58
2018-11-26T04:46:01.981Z,18.58
2018-11-26T04:47:02.139Z,18.59
2018-11-26T04:48:01.868Z,18.57
2018-11-26T04:49:01.631Z,18.58
2018-11-26T04:50:01.926Z,18.59
2018-11-26T04:51:02.063Z,18.58
2018-11-26T04:52:01.806Z,18.59
2018-11-26T04:53:01.869Z,18.62
2018-11-26T04:54:01.839Z,18.62
2018-11-26T04:55:01.931Z,18.62
2018-11-26T04:56:02.425Z,18.62
2018-11-26T04:57:01.848Z,18.63
2018-11-26T04:58:02.049Z,18.66
2018-11-26T04:59:01.888Z,18.65
2018-11-26T05:00:01.905Z,18.67
2018-11-26T05:01:01.781Z,18.67
2018-11-26T05:02:01.836Z,18.66
2018-11-26T05:03:02.126Z,18.7
2018-11-26T05:04:01.817Z,18.69
2018-11-26T05:05:01.938Z,18.7
2018-11-26T05:06:01.695Z,18.7
2018-11-26T05:07:02.168Z,18.72
2018-11-26T05:08:01.806Z,18.73
2018-11-26T05:09:01.773Z,18.76
2018-11-26T05:10:01.987Z,18.77
2018-11-26T05:11:03.116Z,18.77
2018-11-26T05:12:02.193Z,18.79
2018-11-26T05:13:02.145Z,18.8
2018-11-26T05:14:02.231Z,18.82
2018-11-26T05:15:01.799Z,18.81
2018-11-26T05:16:01.823Z,18.84
2018-11-26T05:17:02.238Z,18.84
2018-11-26T05:18:02.373Z,18.85
2018-11-26T05:19:01.927Z,18.86
2018-11-26T05:20:02.266Z,18.87
2018-11-26T05:21:02.471Z,18.87
2018-11-26T05:22:01.769Z,18.87
2018-11-26T05:23:02.010Z,18.89
2018-11-26T05:24:01.937Z,18.91
2018-11-26T05:25:02.697Z,18.94
2018-11-26T05:26:02.211Z,18.89
2018-11-26T05:27:02.238Z,18.93
2018-11-26T05:28:02.128Z,18.93
2018-11-26T05:29:02.618Z,18.94
2018-11-26T05:30:02.243Z,18.97
2018-11-26T05:31:01.786Z,18.94
2018-11-26T05:32:02.010Z,18.97
2018-11-26T05:33:02.877Z,18.97
2018-11-26T05:34:01.921Z,19
2018-11-26T05:35:02.173Z,18.98
2018-11-26T05:36:01.864Z,18.98
2018-11-26T05:37:01.959Z,19
2018-11-26T05:38:01.717Z,19
2018-11-26T05:39:02.733Z,19.01
2018-11-26T05:40:01.723Z,19
2018-11-26T05:41:02.006Z,19
2018-11-26T05:42:02.248Z,19
2018-11-26T05:43:02.105Z,19.01
2018-11-26T05:44:02.181Z,19.01
2018-11-26T05:45:01.902Z,19.03
2018-11-26T05:46:01.991Z,19.01
2018-11-26T05:47:02.642Z,19.03
2018-11-26T05:48:01.840Z,19.01
2018-11-26T05:49:01.702Z,19.03
2018-11-26T05:50:01.920Z,19.03
2018-11-26T05:51:02.032Z,19.02
2018-11-26T05:52:01.901Z,19.03
2018-11-26T05:53:02.001Z,19.05
2018-11-26T05:54:01.797Z,19.05
2018-11-26T05:55:02.177Z,19.03
2018-11-26T05:56:01.792Z,19.02
2018-11-26T05:57:02.214Z,19.05
2018-11-26T05:58:02.025Z,19.06
2018-11-26T05:59:01.785Z,19.05
2018-11-26T06:00:02.078Z,19.02
2018-11-26T06:01:01.718Z,19.06
2018-11-26T06:02:02.182Z,19.01
2018-11-26T06:03:02.264Z,19.05
2018-11-26T06:04:02.132Z,19.05
2018-11-26T06:05:02.148Z,19.03
2018-11-26T06:06:01.940Z,19.06
2018-11-26T06:07:02.130Z,19.05
2018-11-26T06:08:01.848Z,19.02
2018-11-26T06:09:01.861Z,19.06
2018-11-26T06:10:01.756Z,19.02
2018-11-26T06:11:02.215Z,19.05
2018-11-26T06:12:01.928Z,19.05
2018-11-26T06:13:03.259Z,19.03
2018-11-26T06:14:02.124Z,19.03
2018-11-26T06:15:01.829Z,19.05
2018-11-26T06:16:01.706Z,19.02
2018-11-26T06:17:02.176Z,19.03
2018-11-26T06:18:02.174Z,19.05
2018-11-26T06:19:02.195Z,19.01
2018-11-26T06:20:02.075Z,19.03
2018-11-26T06:21:02.044Z,19.01
2018-11-26T06:22:01.851Z,19.03
2018-11-26T06:23:01.873Z,19.03
2018-11-26T06:24:01.760Z,19.03
2018-11-26T06:25:01.848Z,19.03
2018-11-26T06:26:02.426Z,19.03
2018-11-26T06:27:02.538Z,19.02
2018-11-26T06:28:02.323Z,19.02
2018-11-26T06:29:02.137Z,19.01
2018-11-26T06:30:01.916Z,19.01
2018-11-26T06:31:01.858Z,19.01
2018-11-26T06:32:01.915Z,19.01
2018-11-26T06:33:01.818Z,19.02
2018-11-26T06:34:01.626Z,19.01
2018-11-26T06:35:01.758Z,19.01
2018-11-26T06:36:01.878Z,19
2018-11-26T06:37:01.926Z,19
2018-11-26T06:38:02.201Z,19.01
2018-11-26T06:39:01.877Z,19.01
2018-11-26T06:40:01.743Z,19
2018-11-26T06:41:01.822Z,18.98
2018-11-26T06:42:01.733Z,18.99
2018-11-26T06:43:02.118Z,19.01
2018-11-26T06:44:02.361Z,18.98
2018-11-26T06:45:01.907Z,18.98
2018-11-26T06:46:01.903Z,18.98
2018-11-26T06:47:01.896Z,19
2018-11-26T06:48:01.813Z,19
2018-11-26T06:49:02.094Z,18.98
2018-11-26T06:50:02.204Z,19
2018-11-26T06:51:01.778Z,18.99
2018-11-26T06:52:01.906Z,19
2018-11-26T06:53:02.472Z,19.01
2018-11-26T06:54:01.922Z,18.99
2018-11-26T06:55:01.971Z,19.01
2018-11-26T06:56:01.826Z,19
2018-11-26T06:57:01.916Z,18.99
2018-11-26T06:58:01.727Z,18.98
2018-11-26T06:59:02.160Z,19
2018-11-26T07:00:02.004Z,18.98
2018-11-26T07:01:02.025Z,18.99
2018-11-26T07:02:01.867Z,18.98
2018-11-26T07:03:02.664Z,19
2018-11-26T07:04:02.533Z,18.99
2018-11-26T07:05:01.898Z,18.98
2018-11-26T07:06:02.143Z,18.98
2018-11-26T07:07:01.719Z,18.99
2018-11-26T07:08:01.710Z,18.98
2018-11-26T07:09:02.356Z,18.98
2018-11-26T07:10:02.040Z,18.98
2018-11-26T07:11:02.406Z,18.98
2018-11-26T07:12:01.780Z,18.98
2018-11-26T07:13:02.008Z,18.98
2018-11-26T07:14:01.969Z,18.98
2018-11-26T07:15:02.275Z,19
2018-11-26T07:16:01.779Z,18.98
2018-11-26T07:17:02.100Z,19
2018-11-26T07:18:01.924Z,18.98
2018-11-26T07:19:01.739Z,18.97
2018-11-26T07:20:02.318Z,18.96
2018-11-26T07:21:02.044Z,18.98
2018-11-26T07:22:02.137Z,18.99
2018-11-26T07:23:01.668Z,18.97
2018-11-26T07:24:02.083Z,18.98
2018-11-26T07:25:02.789Z,18.97
2018-11-26T07:26:01.741Z,18.98
2018-11-26T07:27:02.153Z,18.96
2018-11-26T07:28:01.814Z,18.98
2018-11-26T07:29:01.902Z,18.97
2018-11-26T07:30:01.904Z,18.94
2018-11-26T07:31:02.099Z,18.97
2018-11-26T07:32:02.210Z,18.96
2018-11-26T07:33:02.072Z,18.97
2018-11-26T07:34:01.795Z,18.97
2018-11-26T07:35:01.652Z,18.95
2018-11-26T07:36:02.122Z,18.95
2018-11-26T07:37:02.575Z,18.98
2018-11-26T07:38:02.329Z,18.96
2018-11-26T07:39:01.809Z,18.97
2018-11-26T07:40:01.845Z,18.97
2018-11-26T07:41:02.311Z,18.96
2018-11-26T07:42:01.824Z,18.97
2018-11-26T07:43:02.324Z,18.95
2018-11-26T07:44:01.886Z,18.94
2018-11-26T07:45:01.780Z,18.95
2018-11-26T07:46:01.933Z,18.96
2018-11-26T07:47:01.820Z,18.95
2018-11-26T07:48:01.987Z,18.94
2018-11-26T07:49:01.794Z,18.95
2018-11-26T07:50:01.550Z,18.94
2018-11-26T07:51:02.897Z,18.94
2018-11-26T07:52:01.757Z,18.95
2018-11-26T07:53:01.752Z,18.94
2018-11-26T07:54:01.765Z,18.95
2018-11-26T07:55:01.871Z,18.95
2018-11-26T07:56:01.777Z,18.96
2018-11-26T07:57:01.876Z,18.95
2018-11-26T07:58:01.721Z,18.96
2018-11-26T07:59:01.720Z,18.98
2018-11-26T08:00:01.759Z,18.95
2018-11-26T08:01:01.883Z,18.93
2018-11-26T08:02:01.671Z,18.96
2018-11-26T08:03:01.747Z,18.93
2018-11-26T08:04:02.250Z,18.94
2018-11-26T08:05:01.752Z,18.96
2018-11-26T08:06:09.244Z,18.94
2018-11-26T08:07:01.957Z,18.94
2018-11-26T08:08:01.731Z,18.95
2018-11-26T08:09:01.870Z,18.94
2018-11-26T08:10:01.673Z,18.95
2018-11-26T08:11:01.879Z,18.94
2018-11-26T08:12:01.687Z,18.95
2018-11-26T08:13:01.893Z,18.94
2018-11-26T08:14:01.726Z,18.93
2018-11-26T08:15:01.826Z,18.94
2018-11-26T08:16:01.707Z,18.93
2018-11-26T08:17:02.051Z,18.93
2018-11-26T08:18:02.142Z,18.94
2018-11-26T08:19:02.261Z,18.94
2018-11-26T08:20:01.827Z,18.94
2018-11-26T08:21:01.759Z,18.94
2018-11-26T08:22:02.112Z,18.92
2018-11-26T08:23:02.026Z,18.93
2018-11-26T08:24:01.641Z,18.94
2018-11-26T08:25:02.256Z,18.94
2018-11-26T08:26:01.724Z,18.92
2018-11-26T08:27:01.952Z,18.94
2018-11-26T08:28:01.979Z,18.92
2018-11-26T08:29:01.679Z,18.93
2018-11-26T08:30:02.111Z,18.91
2018-11-26T08:31:01.875Z,18.95
2018-11-26T08:32:02.051Z,18.93
2018-11-26T08:33:02.096Z,18.94
2018-11-26T08:34:02.147Z,18.94
2018-11-26T08:35:01.704Z,18.93
2018-11-26T08:36:01.811Z,18.92
2018-11-26T08:37:01.888Z,18.95
2018-11-26T08:38:01.891Z,18.92
2018-11-26T08:39:02.056Z,18.93
2018-11-26T08:40:02.211Z,18.94
2018-11-26T08:41:01.924Z,18.94
2018-11-26T08:42:01.757Z,18.92
2018-11-26T08:43:02.227Z,18.94
2018-11-26T08:44:09.913Z,18.93
2018-11-26T08:45:01.764Z,18.92
2018-11-26T08:46:02.512Z,18.94
2018-11-26T08:47:01.699Z,18.89
2018-11-26T08:48:01.895Z,18.93
2018-11-26T08:49:01.906Z,18.91
2018-11-26T08:50:01.989Z,18.94
2018-11-26T08:51:01.956Z,18.92
2018-11-26T08:52:01.815Z,18.93
2018-11-26T08:53:01.730Z,18.94
2018-11-26T08:54:02.265Z,18.89
2018-11-26T08:55:02.928Z,18.92
2018-11-26T08:56:02.004Z,18.92
2018-11-26T08:57:02.688Z,18.91
2018-11-26T08:58:01.757Z,18.92
2018-11-26T08:59:01.867Z,18.93
2018-11-26T09:00:02.174Z,18.94
2018-11-26T09:01:01.899Z,18.91
2018-11-26T09:02:02.256Z,18.92
2018-11-26T09:03:01.824Z,18.94
2018-11-26T09:04:01.859Z,18.93
2018-11-26T09:05:01.962Z,18.92
2018-11-26T09:06:01.880Z,18.94
2018-11-26T09:07:02.031Z,18.93
2018-11-26T09:08:02.080Z,18.92
2018-11-26T09:09:01.768Z,18.93
2018-11-26T09:10:02.093Z,18.94
2018-11-26T09:11:01.711Z,18.93
2018-11-26T09:12:02.104Z,18.92
2018-11-26T09:13:02.183Z,18.93
2018-11-26T09:14:01.816Z,18.94
2018-11-26T09:15:01.822Z,18.94
2018-11-26T09:16:01.679Z,18.93
2018-11-26T09:17:02.239Z,18.94
2018-11-26T09:18:01.784Z,18.94
2018-11-26T09:19:02.271Z,18.92
2018-11-26T09:20:01.952Z,18.94
2018-11-26T09:21:02.921Z,18.94
2018-11-26T09:22:01.833Z,18.93
2018-11-26T09:23:01.733Z,18.95
2018-11-26T09:24:02.056Z,18.94
2018-11-26T09:25:01.686Z,18.94
2018-11-26T09:26:01.762Z,18.94
2018-11-26T09:27:01.695Z,18.93
2018-11-26T09:28:01.915Z,18.94
2018-11-26T09:29:01.872Z,18.92
2018-11-26T09:30:01.747Z,18.94
2018-11-26T09:31:01.929Z,18.94
2018-11-26T09:32:01.673Z,18.93
2018-11-26T09:33:01.775Z,18.94
2018-11-26T09:34:02.076Z,18.94
2018-11-26T09:35:01.843Z,18.94
2018-11-26T09:36:01.670Z,18.89
2018-11-26T09:37:01.820Z,18.94
2018-11-26T09:38:01.806Z,18.93
2018-11-26T09:39:01.746Z,18.93
2018-11-26T09:40:01.878Z,18.91
2018-11-26T09:41:01.718Z,18.92
2018-11-26T09:42:01.810Z,18.94
2018-11-26T09:43:01.891Z,18.93
2018-11-26T09:44:01.839Z,18.91
2018-11-26T09:45:01.660Z,18.92
2018-11-26T09:46:01.956Z,18.93
2018-11-26T09:47:01.807Z,18.91
2018-11-26T09:48:01.652Z,18.93
2018-11-26T09:49:01.734Z,18.91
2018-11-26T09:50:01.872Z,18.92
2018-11-26T09:51:01.795Z,18.93
2018-11-26T09:52:02.012Z,18.91
2018-11-26T09:53:01.684Z,18.92
2018-11-26T09:54:02.778Z,18.93
2018-11-26T09:55:02.206Z,18.92
2018-11-26T09:56:01.734Z,18.92
2018-11-26T09:57:02.306Z,18.89
2018-11-26T09:58:01.817Z,18.92
2018-11-26T09:59:01.864Z,18.89
2018-11-26T10:00:01.711Z,18.92
2018-11-26T10:01:01.682Z,18.92
2018-11-26T10:02:01.941Z,18.92
2018-11-26T10:03:02.173Z,18.91
2018-11-26T10:04:01.950Z,18.91
2018-11-26T10:05:01.665Z,18.93
2018-11-26T10:06:02.139Z,18.91
2018-11-26T10:07:01.623Z,18.92
2018-11-26T10:08:01.733Z,18.89
2018-11-26T10:09:01.875Z,18.88
2018-11-26T10:10:01.809Z,18.91
2018-11-26T10:11:01.892Z,18.88
2018-11-26T10:12:01.681Z,18.91
2018-11-26T10:13:02.446Z,18.92
2018-11-26T10:14:01.631Z,18.89
2018-11-26T10:15:01.676Z,18.91
2018-11-26T10:16:01.839Z,18.91
2018-11-26T10:17:01.805Z,18.88
2018-11-26T10:18:01.887Z,18.89
2018-11-26T10:19:01.623Z,18.88
2018-11-26T10:20:02.054Z,18.92
2018-11-26T10:21:01.731Z,18.89
2018-11-26T10:22:01.768Z,18.89
2018-11-26T10:23:01.934Z,18.89
2018-11-26T10:24:02.084Z,18.91
2018-11-26T10:25:06.285Z,18.88
2018-11-26T10:26:01.932Z,18.91
2018-11-26T10:27:01.817Z,18.88
2018-11-26T10:28:01.717Z,18.91
2018-11-26T10:29:02.060Z,18.89
2018-11-26T10:30:01.964Z,18.88
2018-11-26T10:31:01.755Z,18.88
2018-11-26T10:32:01.746Z,18.88
2018-11-26T10:33:01.669Z,18.91
2018-11-26T10:34:01.916Z,18.88
2018-11-26T10:35:01.985Z,18.88
2018-11-26T10:36:01.840Z,18.88
2018-11-26T10:37:01.914Z,18.91
2018-11-26T10:38:01.895Z,18.88
2018-11-26T10:39:02.125Z,18.89
2018-11-26T10:40:02.295Z,18.88
2018-11-26T10:41:02.230Z,18.88
2018-11-26T10:42:01.709Z,18.88
2018-11-26T10:43:02.134Z,18.88
2018-11-26T10:44:02.017Z,18.88
2018-11-26T10:45:02.230Z,18.89
2018-11-26T10:46:01.827Z,18.88
2018-11-26T10:47:01.817Z,18.87
2018-11-26T10:48:02.794Z,18.88
2018-11-26T10:49:02.675Z,18.87
2018-11-26T10:50:02.247Z,18.88
2018-11-26T10:51:01.914Z,18.89
2018-11-26T10:52:02.201Z,18.88
2018-11-26T10:53:01.822Z,18.88
2018-11-26T10:54:01.747Z,18.89
2018-11-26T10:55:01.712Z,18.88
2018-11-26T10:56:01.891Z,18.88
2018-11-26T10:57:01.768Z,18.89
2018-11-26T10:58:01.780Z,18.91
2018-11-26T10:59:01.840Z,18.86
2018-11-26T11:00:02.094Z,18.88
2018-11-26T11:01:01.761Z,18.87
2018-11-26T11:02:01.897Z,18.88
2018-11-26T11:03:01.712Z,18.89
2018-11-26T11:04:01.845Z,18.88
2018-11-26T11:05:01.755Z,18.88
2018-11-26T11:06:02.403Z,18.88
2018-11-26T11:07:01.673Z,18.87
2018-11-26T11:08:01.721Z,18.88
2018-11-26T11:09:01.679Z,18.88
2018-11-26T11:10:01.832Z,18.88
2018-11-26T11:11:01.791Z,18.88
2018-11-26T11:12:01.599Z,18.86
2018-11-26T11:13:01.895Z,18.87
2018-11-26T11:14:01.755Z,18.88
2018-11-26T11:15:01.998Z,18.86
2018-11-26T11:16:01.576Z,18.87
2018-11-26T11:17:01.797Z,18.87
2018-11-26T11:18:01.865Z,18.88
2018-11-26T11:19:01.653Z,18.88
2018-11-26T11:20:01.884Z,18.85
2018-11-26T11:21:01.828Z,18.88
2018-11-26T11:22:01.877Z,18.88
2018-11-26T11:23:01.732Z,18.88
2018-11-26T11:24:02.093Z,18.86
2018-11-26T11:25:01.789Z,18.85
2018-11-26T11:26:01.819Z,18.89
2018-11-26T11:27:02.126Z,18.88
2018-11-26T11:28:01.671Z,18.87
2018-11-26T11:29:01.886Z,18.84
2018-11-26T11:30:01.586Z,18.88
2018-11-26T11:31:01.734Z,18.88
2018-11-26T11:32:01.729Z,18.85
2018-11-26T11:34:01.677Z,18.87
2018-11-26T11:35:01.867Z,18.87
2018-11-26T11:36:01.797Z,18.88
2018-11-26T11:37:01.770Z,18.87
2018-11-26T11:38:02.223Z,18.87
2018-11-26T11:39:01.731Z,18.88
2018-11-26T11:40:01.889Z,18.85
2018-11-26T11:41:01.748Z,18.87
2018-11-26T11:42:01.991Z,18.88
2018-11-26T11:43:02.154Z,18.87
2018-11-26T11:44:01.906Z,18.86
2018-11-26T11:45:02.025Z,18.86
2018-11-26T11:46:01.937Z,18.87
2018-11-26T11:47:01.893Z,18.86
2018-11-26T11:48:01.556Z,18.88
2018-11-26T11:49:01.991Z,18.88
2018-11-26T11:50:01.748Z,18.89
2018-11-26T11:51:01.814Z,18.89
2018-11-26T11:52:01.798Z,18.91
2018-11-26T11:53:01.636Z,18.88
2018-11-26T11:54:01.781Z,18.89
2018-11-26T11:55:02.198Z,18.91
2018-11-26T11:56:01.914Z,18.91
2018-11-26T11:57:01.657Z,18.91
2018-11-26T11:58:02.042Z,18.93
2018-11-26T11:59:01.929Z,18.89
2018-11-26T12:00:01.921Z,18.91
2018-11-26T12:01:02.107Z,18.92
2018-11-26T12:02:02.116Z,18.93
2018-11-26T12:03:03.161Z,18.94
2018-11-26T12:04:01.732Z,18.92
2018-11-26T12:05:02.386Z,18.93
2018-11-26T12:06:01.522Z,18.93
2018-11-26T12:07:01.562Z,18.91
2018-11-26T12:08:02.118Z,18.92
2018-11-26T12:09:02.375Z,18.93
2018-11-26T12:10:02.155Z,18.92
2018-11-26T12:11:02.281Z,18.89
2018-11-26T12:12:02.032Z,18.91
2018-11-26T12:13:01.959Z,18.91
2018-11-26T12:14:01.951Z,18.94
2018-11-26T12:15:01.754Z,18.92
2018-11-26T12:16:01.979Z,18.93
2018-11-26T12:17:01.958Z,18.94
2018-11-26T12:18:01.761Z,18.91
2018-11-26T12:19:01.583Z,18.92
2018-11-26T12:20:02.047Z,18.92
2018-11-26T12:21:01.886Z,18.93
2018-11-26T12:22:01.744Z,18.93
2018-11-26T12:23:02.056Z,18.91
2018-11-26T12:24:01.781Z,18.91
2018-11-26T12:25:02.048Z,18.92
2018-11-26T12:26:01.732Z,18.91
2018-11-26T12:27:01.663Z,18.92
2018-11-26T12:28:02.524Z,18.93
2018-11-26T12:29:01.763Z,18.92
2018-11-26T12:30:02.267Z,18.93
2018-11-26T12:31:01.846Z,18.93
2018-11-26T12:32:01.895Z,18.93
2018-11-26T12:33:01.681Z,18.91
2018-11-26T12:34:01.778Z,18.91
2018-11-26T12:35:01.710Z,18.89
2018-11-26T12:36:01.925Z,18.88
2018-11-26T12:37:01.649Z,18.89
2018-11-26T12:38:01.679Z,18.92
2018-11-26T12:39:01.872Z,18.93
2018-11-26T12:40:01.675Z,18.89
2018-11-26T12:41:01.833Z,18.89
2018-11-26T12:42:04.404Z,18.88
2018-11-26T12:43:01.672Z,18.89
2018-11-26T12:44:01.840Z,18.87
2018-11-26T12:45:01.689Z,18.91
2018-11-26T12:46:01.927Z,18.88
2018-11-26T12:47:02.101Z,18.91
2018-11-26T12:48:01.776Z,18.89
2018-11-26T12:49:01.722Z,18.91
2018-11-26T12:50:01.964Z,18.91
2018-11-26T12:51:01.760Z,18.91
2018-11-26T12:52:01.827Z,18.91
2018-11-26T12:53:01.707Z,18.89
2018-11-26T12:54:01.631Z,18.88
2018-11-26T12:55:01.780Z,18.89
2018-11-26T12:56:01.677Z,18.88